sensor_id;sensor_type;location;lat;lon;timestamp;P1;durP1;ratioP1;P2;durP2;ratioP2
69213;SDS011;56325;47.030;18.518;2022-08-05T00:02:55;10.70;;;3.67;;
69213;SDS011;56325;47.030;18.518;2022-08-05T00:05:59;3.25;;;2.95;;
69213;SDS011;56325;47.030;18.518;2022-08-05T00:09:42;8.02;;;3.25;;
69213;SDS011;56325;47.030;18.518;2022-08-05T00:12:46;3.62;;;3.33;;
69213;SDS011;56325;47.030;18.518;2022-08-05T00:16:18;6.35;;;3.17;;
69213;SDS011;56325;47.030;18.518;2022-08-05T00:19:54;3.20;;;3.00;;
69213;SDS011;56325;47.030;18.518;2022-08-05T00:23:17;8.15;;;3.40;;
69213;SDS011;56325;47.030;18.518;2022-08-05T00:26:41;3.00;;;2.87;;
69213;SDS011;56325;47.030;18.518;2022-08-05T00:29:55;9.00;;;3.20;;
69213;SDS011;56325;47.030;18.518;2022-08-05T00:33:05;4.55;;;2.85;;
69213;SDS011;56325;47.030;18.518;2022-08-05T00:36:16;6.20;;;3.30;;
69213;SDS011;56325;47.030;18.518;2022-08-05T00:39:40;6.57;;;3.37;;
69213;SDS011;56325;47.030;18.518;2022-08-05T00:43:02;9.05;;;3.47;;
69213;SDS011;56325;47.030;18.518;2022-08-05T00:46:11;3.45;;;3.15;;
69213;SDS011;56325;47.030;18.518;2022-08-05T00:49:16;5.45;;;2.85;;
69213;SDS011;56325;47.030;18.518;2022-08-05T00:52:22;3.35;;;2.78;;
69213;SDS011;56325;47.030;18.518;2022-08-05T00:55:31;5.75;;;3.00;;
69213;SDS011;56325;47.030;18.518;2022-08-05T00:58:46;4.90;;;3.08;;
69213;SDS011;56325;47.030;18.518;2022-08-05T01:01:49;12.68;;;3.42;;
69213;SDS011;56325;47.030;18.518;2022-08-05T01:04:53;6.07;;;3.22;;
69213;SDS011;56325;47.030;18.518;2022-08-05T01:07:56;3.72;;;3.28;;
69213;SDS011;56325;47.030;18.518;2022-08-05T01:12:05;3.30;;;2.95;;
69213;SDS011;56325;47.030;18.518;2022-08-05T01:19:03;6.43;;;3.40;;
69213;SDS011;56325;47.030;18.518;2022-08-05T01:22:53;7.68;;;3.33;;
69213;SDS011;56325;47.030;18.518;2022-08-05T01:26:39;3.12;;;2.85;;
69213;SDS011;56325;47.030;18.518;2022-08-05T01:29:57;10.23;;;3.30;;
69213;SDS011;56325;47.030;18.518;2022-08-05T01:33:06;3.12;;;2.92;;
69213;SDS011;56325;47.030;18.518;2022-08-05T01:36:17;5.47;;;3.22;;
69213;SDS011;56325;47.030;18.518;2022-08-05T01:39:30;4.43;;;3.35;;
69213;SDS011;56325;47.030;18.518;2022-08-05T01:42:48;5.85;;;3.28;;
69213;SDS011;56325;47.030;18.518;2022-08-05T01:45:54;8.43;;;3.25;;
69213;SDS011;56325;47.030;18.518;2022-08-05T01:49:20;3.47;;;3.17;;
69213;SDS011;56325;47.030;18.518;2022-08-05T01:52:46;8.82;;;3.10;;
69213;SDS011;56325;47.030;18.518;2022-08-05T01:55:51;9.88;;;3.40;;
69213;SDS011;56325;47.030;18.518;2022-08-05T01:59:07;8.10;;;3.62;;
69213;SDS011;56325;47.030;18.518;2022-08-05T02:02:36;4.75;;;3.83;;
69213;SDS011;56325;47.030;18.518;2022-08-05T02:06:04;5.78;;;3.30;;
69213;SDS011;56325;47.030;18.518;2022-08-05T02:09:49;6.00;;;3.50;;
69213;SDS011;56325;47.030;18.518;2022-08-05T02:12:59;11.95;;;3.42;;
69213;SDS011;56325;47.030;18.518;2022-08-05T02:16:22;3.95;;;3.53;;
69213;SDS011;56325;47.030;18.518;2022-08-05T02:19:40;4.18;;;3.37;;
69213;SDS011;56325;47.030;18.518;2022-08-05T02:22:54;14.50;;;3.45;;
69213;SDS011;56325;47.030;18.518;2022-08-05T02:26:04;4.40;;;3.80;;
69213;SDS011;56325;47.030;18.518;2022-08-05T02:32:38;10.32;;;3.90;;
69213;SDS011;56325;47.030;18.518;2022-08-05T02:36:10;15.60;;;3.53;;
69213;SDS011;56325;47.030;18.518;2022-08-05T02:39:36;6.37;;;3.35;;
69213;SDS011;56325;47.030;18.518;2022-08-05T02:42:44;17.00;;;4.10;;
69213;SDS011;56325;47.030;18.518;2022-08-05T02:45:56;6.22;;;3.50;;
69213;SDS011;56325;47.030;18.518;2022-08-05T02:49:02;7.60;;;3.15;;
69213;SDS011;56325;47.030;18.518;2022-08-05T02:55:51;3.80;;;3.53;;
69213;SDS011;56325;47.030;18.518;2022-08-05T02:59:03;3.65;;;3.35;;
69213;SDS011;56325;47.030;18.518;2022-08-05T03:02:12;11.57;;;3.53;;
69213;SDS011;56325;47.030;18.518;2022-08-05T03:05:37;11.73;;;3.67;;
69213;SDS011;56325;47.030;18.518;2022-08-05T03:09:02;8.95;;;3.40;;
69213;SDS011;56325;47.030;18.518;2022-08-05T03:12:08;7.95;;;3.50;;
69213;SDS011;56325;47.030;18.518;2022-08-05T03:15:13;6.18;;;3.78;;
69213;SDS011;56325;47.030;18.518;2022-08-05T03:18:18;10.38;;;4.05;;
69213;SDS011;56325;47.030;18.518;2022-08-05T03:22:01;5.62;;;3.72;;
69213;SDS011;56325;47.030;18.518;2022-08-05T03:41:36;9.70;;;3.92;;
69213;SDS011;56325;47.030;18.518;2022-08-05T03:45:07;7.47;;;3.95;;
69213;SDS011;56325;47.030;18.518;2022-08-05T03:48:43;7.25;;;3.80;;
69213;SDS011;56325;47.030;18.518;2022-08-05T03:52:11;5.10;;;3.60;;
69213;SDS011;56325;47.030;18.518;2022-08-05T03:56:28;6.30;;;3.65;;
69213;SDS011;56325;47.030;18.518;2022-08-05T03:59:44;11.75;;;4.47;;
69213;SDS011;56325;47.030;18.518;2022-08-05T04:02:57;22.20;;;5.70;;
69213;SDS011;56325;47.030;18.518;2022-08-05T04:06:23;10.25;;;4.22;;
69213;SDS011;56325;47.030;18.518;2022-08-05T04:09:28;14.52;;;4.80;;
69213;SDS011;56325;47.030;18.518;2022-08-05T04:12:58;18.20;;;4.60;;
69213;SDS011;56325;47.030;18.518;2022-08-05T04:16:07;5.75;;;4.10;;
69213;SDS011;56325;47.030;18.518;2022-08-05T04:19:18;6.25;;;4.22;;
69213;SDS011;56325;47.030;18.518;2022-08-05T04:22:24;8.80;;;4.68;;
69213;SDS011;56325;47.030;18.518;2022-08-05T04:25:48;13.27;;;4.32;;
69213;SDS011;56325;47.030;18.518;2022-08-05T04:29:02;8.73;;;4.45;;
69213;SDS011;56325;47.030;18.518;2022-08-05T04:32:09;17.42;;;4.82;;
69213;SDS011;56325;47.030;18.518;2022-08-05T04:35:13;10.00;;;5.15;;
69213;SDS011;56325;47.030;18.518;2022-08-05T04:38:42;21.70;;;6.37;;
69213;SDS011;56325;47.030;18.518;2022-08-05T04:41:52;20.25;;;5.57;;
69213;SDS011;56325;47.030;18.518;2022-08-05T04:44:58;32.42;;;5.87;;
69213;SDS011;56325;47.030;18.518;2022-08-05T04:48:18;11.57;;;4.78;;
69213;SDS011;56325;47.030;18.518;2022-08-05T04:51:49;8.80;;;4.55;;
69213;SDS011;56325;47.030;18.518;2022-08-05T04:55:03;6.18;;;4.57;;
69213;SDS011;56325;47.030;18.518;2022-08-05T04:58:17;7.93;;;4.90;;
69213;SDS011;56325;47.030;18.518;2022-08-05T06:44:28;17.40;;;3.42;;
69213;SDS011;56325;47.030;18.518;2022-08-05T06:48:04;3.37;;;3.08;;
69213;SDS011;56325;47.030;18.518;2022-08-05T06:51:31;8.90;;;3.55;;
69213;SDS011;56325;47.030;18.518;2022-08-05T06:54:34;12.77;;;3.22;;
69213;SDS011;56325;47.030;18.518;2022-08-05T06:57:46;4.32;;;3.00;;
69213;SDS011;56325;47.030;18.518;2022-08-05T07:01:05;3.40;;;3.10;;
69213;SDS011;56325;47.030;18.518;2022-08-05T07:04:09;19.98;;;3.25;;
69213;SDS011;56325;47.030;18.518;2022-08-05T07:07:15;7.22;;;3.60;;
69213;SDS011;56325;47.030;18.518;2022-08-05T07:10:38;6.55;;;3.05;;
69213;SDS011;56325;47.030;18.518;2022-08-05T07:14:01;11.07;;;3.15;;
69213;SDS011;56325;47.030;18.518;2022-08-05T07:17:32;24.25;;;4.12;;
69213;SDS011;56325;47.030;18.518;2022-08-05T07:20:56;7.03;;;3.15;;
69213;SDS011;56325;47.030;18.518;2022-08-05T07:28:09;4.87;;;2.87;;
69213;SDS011;56325;47.030;18.518;2022-08-05T07:31:22;32.58;;;4.47;;
69213;SDS011;56325;47.030;18.518;2022-08-05T07:43:06;6.35;;;3.25;;
69213;SDS011;56325;47.030;18.518;2022-08-05T07:46:27;4.37;;;3.20;;
69213;SDS011;56325;47.030;18.518;2022-08-05T08:10:17;6.32;;;3.03;;
69213;SDS011;56325;47.030;18.518;2022-08-05T08:13:28;3.83;;;2.83;;
69213;SDS011;56325;47.030;18.518;2022-08-05T08:16:44;6.15;;;2.65;;
69213;SDS011;56325;47.030;18.518;2022-08-05T08:19:54;2.97;;;2.75;;
69213;SDS011;56325;47.030;18.518;2022-08-05T08:23:35;3.47;;;2.50;;
69213;SDS011;56325;47.030;18.518;2022-08-05T08:26:58;2.70;;;2.50;;
69213;SDS011;56325;47.030;18.518;2022-08-05T08:30:13;2.92;;;2.67;;
69213;SDS011;56325;47.030;18.518;2022-08-05T08:33:36;5.87;;;2.28;;
69213;SDS011;56325;47.030;18.518;2022-08-05T08:36:42;3.42;;;2.22;;
69213;SDS011;56325;47.030;18.518;2022-08-05T08:39:59;4.07;;;2.53;;
69213;SDS011;56325;47.030;18.518;2022-08-05T08:43:06;2.25;;;2.15;;
69213;SDS011;56325;47.030;18.518;2022-08-05T08:46:41;2.33;;;2.12;;
69213;SDS011;56325;47.030;18.518;2022-08-05T08:49:56;4.60;;;2.03;;
69213;SDS011;56325;47.030;18.518;2022-08-05T08:53:20;3.35;;;2.15;;
69213;SDS011;56325;47.030;18.518;2022-08-05T08:56:28;1.92;;;1.83;;
69213;SDS011;56325;47.030;18.518;2022-08-05T08:59:36;2.10;;;2.00;;
69213;SDS011;56325;47.030;18.518;2022-08-05T09:02:43;3.17;;;1.80;;
69213;SDS011;56325;47.030;18.518;2022-08-05T09:09:51;2.67;;;1.87;;
69213;SDS011;56325;47.030;18.518;2022-08-05T09:12:55;2.28;;;2.05;;
69213;SDS011;56325;47.030;18.518;2022-08-05T09:16:06;3.10;;;1.60;;
69213;SDS011;56325;47.030;18.518;2022-08-05T09:19:30;5.07;;;1.77;;
69213;SDS011;56325;47.030;18.518;2022-08-05T09:23:27;28.60;;;3.90;;
69213;SDS011;56325;47.030;18.518;2022-08-05T09:26:24;7.90;;;1.80;;
69213;SDS011;56325;47.030;18.518;2022-08-05T09:29:37;2.95;;;1.83;;
69213;SDS011;56325;47.030;18.518;2022-08-05T09:32:49;2.80;;;1.55;;
69213;SDS011;56325;47.030;18.518;2022-08-05T09:36:02;2.33;;;1.67;;
69213;SDS011;56325;47.030;18.518;2022-08-05T09:39:18;2.80;;;1.60;;
69213;SDS011;56325;47.030;18.518;2022-08-05T09:42:23;1.67;;;1.67;;
69213;SDS011;56325;47.030;18.518;2022-08-05T09:45:34;1.70;;;1.60;;
69213;SDS011;56325;47.030;18.518;2022-08-05T09:52:56;1.65;;;1.55;;
69213;SDS011;56325;47.030;18.518;2022-08-05T09:56:48;2.72;;;1.70;;
69213;SDS011;56325;47.030;18.518;2022-08-05T09:59:56;3.80;;;1.77;;
69213;SDS011;56325;47.030;18.518;2022-08-05T10:03:07;4.20;;;1.45;;
69213;SDS011;56325;47.030;18.518;2022-08-05T10:18:52;1.62;;;1.52;;
69213;SDS011;56325;47.030;18.518;2022-08-05T10:22:19;5.82;;;1.75;;
69213;SDS011;56325;47.030;18.518;2022-08-05T10:25:59;2.58;;;1.67;;
69213;SDS011;56325;47.030;18.518;2022-08-05T10:29:08;1.40;;;1.30;;
69213;SDS011;56325;47.030;18.518;2022-08-05T10:32:11;2.08;;;1.45;;
69213;SDS011;56325;47.030;18.518;2022-08-05T10:35:35;4.22;;;1.70;;
69213;SDS011;56325;47.030;18.518;2022-08-05T10:38:47;1.48;;;1.48;;
69213;SDS011;56325;47.030;18.518;2022-08-05T10:42:02;3.83;;;1.48;;
69213;SDS011;56325;47.030;18.518;2022-08-05T10:45:12;2.28;;;1.65;;
69213;SDS011;56325;47.030;18.518;2022-08-05T10:48:54;1.60;;;1.50;;
69213;SDS011;56325;47.030;18.518;2022-08-05T10:52:36;2.50;;;1.50;;
69213;SDS011;56325;47.030;18.518;2022-08-05T10:56:01;1.60;;;1.50;;
69213;SDS011;56325;47.030;18.518;2022-08-05T10:59:27;1.60;;;1.50;;
69213;SDS011;56325;47.030;18.518;2022-08-05T11:06:27;14.63;;;2.28;;
69213;SDS011;56325;47.030;18.518;2022-08-05T11:09:37;3.60;;;1.60;;
69213;SDS011;56325;47.030;18.518;2022-08-05T11:12:48;13.95;;;1.73;;
69213;SDS011;56325;47.030;18.518;2022-08-05T11:16:19;1.62;;;1.62;;
69213;SDS011;56325;47.030;18.518;2022-08-05T11:19:37;1.95;;;1.52;;
69213;SDS011;56325;47.030;18.518;2022-08-05T11:26:49;1.80;;;1.70;;
69213;SDS011;56325;47.030;18.518;2022-08-05T11:34:05;1.62;;;1.62;;
69213;SDS011;56325;47.030;18.518;2022-08-05T11:37:09;4.37;;;1.70;;
69213;SDS011;56325;47.030;18.518;2022-08-05T11:44:34;1.95;;;1.48;;
69213;SDS011;56325;47.030;18.518;2022-08-05T11:47:56;1.80;;;1.70;;
69213;SDS011;56325;47.030;18.518;2022-08-05T11:51:00;7.40;;;1.83;;
69213;SDS011;56325;47.030;18.518;2022-08-05T11:54:04;2.25;;;1.67;;
69213;SDS011;56325;47.030;18.518;2022-08-05T11:57:09;2.67;;;1.60;;
69213;SDS011;56325;47.030;18.518;2022-08-05T12:00:29;1.98;;;1.60;;
69213;SDS011;56325;47.030;18.518;2022-08-05T12:03:43;4.18;;;1.77;;
69213;SDS011;56325;47.030;18.518;2022-08-05T12:06:58;7.35;;;2.08;;
69213;SDS011;56325;47.030;18.518;2022-08-05T12:10:09;2.55;;;1.60;;
69213;SDS011;56325;47.030;18.518;2022-08-05T12:13:20;1.85;;;1.75;;
69213;SDS011;56325;47.030;18.518;2022-08-05T12:16:44;2.47;;;1.80;;
69213;SDS011;56325;47.030;18.518;2022-08-05T12:23:20;3.72;;;1.98;;
69213;SDS011;56325;47.030;18.518;2022-08-05T12:26:34;3.95;;;1.60;;
69213;SDS011;56325;47.030;18.518;2022-08-05T12:29:38;3.92;;;1.73;;
69213;SDS011;56325;47.030;18.518;2022-08-05T12:32:45;1.60;;;1.45;;
69213;SDS011;56325;47.030;18.518;2022-08-05T12:35:55;4.12;;;1.50;;
69213;SDS011;56325;47.030;18.518;2022-08-05T12:38:59;5.62;;;1.58;;
69213;SDS011;56325;47.030;18.518;2022-08-05T12:42:09;2.87;;;1.73;;
69213;SDS011;56325;47.030;18.518;2022-08-05T12:45:18;1.62;;;1.50;;
69213;SDS011;56325;47.030;18.518;2022-08-05T12:48:26;3.60;;;1.70;;
69213;SDS011;56325;47.030;18.518;2022-08-05T12:55:20;4.45;;;1.42;;
69213;SDS011;56325;47.030;18.518;2022-08-05T12:58:27;3.03;;;1.70;;
69213;SDS011;56325;47.030;18.518;2022-08-05T13:02:09;18.60;;;2.22;;
69213;SDS011;56325;47.030;18.518;2022-08-05T13:05:13;1.65;;;1.55;;
69213;SDS011;56325;47.030;18.518;2022-08-05T13:08:17;2.40;;;1.80;;
69213;SDS011;56325;47.030;18.518;2022-08-05T13:11:22;1.83;;;1.65;;
69213;SDS011;56325;47.030;18.518;2022-08-05T13:18:08;1.80;;;1.70;;
69213;SDS011;56325;47.030;18.518;2022-08-05T13:21:12;1.67;;;1.40;;
69213;SDS011;56325;47.030;18.518;2022-08-05T13:24:15;1.80;;;1.70;;
69213;SDS011;56325;47.030;18.518;2022-08-05T13:27:40;2.15;;;2.03;;
69213;SDS011;56325;47.030;18.518;2022-08-05T13:30:52;7.87;;;1.50;;
69213;SDS011;56325;47.030;18.518;2022-08-05T13:33:56;1.60;;;1.50;;
69213;SDS011;56325;47.030;18.518;2022-08-05T13:37:19;3.72;;;1.30;;
69213;SDS011;56325;47.030;18.518;2022-08-05T13:41:01;3.12;;;1.50;;
69213;SDS011;56325;47.030;18.518;2022-08-05T13:44:05;1.55;;;1.33;;
69213;SDS011;56325;47.030;18.518;2022-08-05T13:47:14;5.28;;;1.30;;
69213;SDS011;56325;47.030;18.518;2022-08-05T13:50:38;7.78;;;1.70;;
69213;SDS011;56325;47.030;18.518;2022-08-05T13:53:42;2.72;;;1.73;;
69213;SDS011;56325;47.030;18.518;2022-08-05T13:56:49;3.28;;;1.35;;
69213;SDS011;56325;47.030;18.518;2022-08-05T13:59:53;1.77;;;1.67;;
69213;SDS011;56325;47.030;18.518;2022-08-05T14:03:01;4.65;;;1.60;;
69213;SDS011;56325;47.030;18.518;2022-08-05T14:06:04;1.52;;;1.42;;
69213;SDS011;56325;47.030;18.518;2022-08-05T14:09:27;3.05;;;2.00;;
69213;SDS011;56325;47.030;18.518;2022-08-05T14:12:31;2.45;;;1.70;;
69213;SDS011;56325;47.030;18.518;2022-08-05T14:15:34;3.30;;;1.50;;
69213;SDS011;56325;47.030;18.518;2022-08-05T14:18:58;11.05;;;1.92;;
69213;SDS011;56325;47.030;18.518;2022-08-05T14:22:06;1.35;;;1.35;;
69213;SDS011;56325;47.030;18.518;2022-08-05T14:25:14;2.20;;;1.73;;
69213;SDS011;56325;47.030;18.518;2022-08-05T14:28:23;4.53;;;1.65;;
69213;SDS011;56325;47.030;18.518;2022-08-05T14:31:29;1.62;;;1.52;;
69213;SDS011;56325;47.030;18.518;2022-08-05T14:34:52;85.20;;;4.90;;
69213;SDS011;56325;47.030;18.518;2022-08-05T14:37:58;3.20;;;1.40;;
69213;SDS011;56325;47.030;18.518;2022-08-05T14:45:04;5.50;;;1.50;;
69213;SDS011;56325;47.030;18.518;2022-08-05T14:48:10;1.40;;;1.30;;
69213;SDS011;56325;47.030;18.518;2022-08-05T14:51:37;8.23;;;1.65;;
69213;SDS011;56325;47.030;18.518;2022-08-05T14:54:46;4.20;;;1.50;;
69213;SDS011;56325;47.030;18.518;2022-08-05T14:57:54;1.50;;;1.40;;
69213;SDS011;56325;47.030;18.518;2022-08-05T15:00:58;1.45;;;1.25;;
69213;SDS011;56325;47.030;18.518;2022-08-05T15:04:03;1.37;;;1.23;;
69213;SDS011;56325;47.030;18.518;2022-08-05T15:07:09;2.87;;;1.45;;
69213;SDS011;56325;47.030;18.518;2022-08-05T15:10:32;17.65;;;1.50;;
69213;SDS011;56325;47.030;18.518;2022-08-05T15:13:37;3.72;;;1.33;;
69213;SDS011;56325;47.030;18.518;2022-08-05T15:16:47;1.62;;;1.62;;
69213;SDS011;56325;47.030;18.518;2022-08-05T15:19:52;1.77;;;1.25;;
69213;SDS011;56325;47.030;18.518;2022-08-05T15:23:07;2.15;;;1.58;;
69213;SDS011;56325;47.030;18.518;2022-08-05T15:26:12;1.95;;;1.30;;
69213;SDS011;56325;47.030;18.518;2022-08-05T15:29:16;1.70;;;1.30;;
69213;SDS011;56325;47.030;18.518;2022-08-05T15:32:20;1.33;;;1.33;;
69213;SDS011;56325;47.030;18.518;2022-08-05T15:35:29;1.50;;;1.40;;
69213;SDS011;56325;47.030;18.518;2022-08-05T15:38:38;1.40;;;1.40;;
69213;SDS011;56325;47.030;18.518;2022-08-05T15:41:43;2.90;;;1.17;;
69213;SDS011;56325;47.030;18.518;2022-08-05T15:45:01;2.87;;;1.50;;
69213;SDS011;56325;47.030;18.518;2022-08-05T15:48:07;4.05;;;1.20;;
69213;SDS011;56325;47.030;18.518;2022-08-05T15:51:16;5.60;;;1.15;;
69213;SDS011;56325;47.030;18.518;2022-08-05T15:54:43;4.05;;;1.37;;
69213;SDS011;56325;47.030;18.518;2022-08-05T15:57:54;4.30;;;1.42;;
69213;SDS011;56325;47.030;18.518;2022-08-05T16:05:06;4.78;;;1.60;;
69213;SDS011;56325;47.030;18.518;2022-08-05T16:12:15;2.37;;;1.10;;
69213;SDS011;56325;47.030;18.518;2022-08-05T16:15:21;3.20;;;1.40;;
69213;SDS011;56325;47.030;18.518;2022-08-05T16:18:26;8.38;;;1.73;;
69213;SDS011;56325;47.030;18.518;2022-08-05T16:21:31;2.50;;;1.77;;
69213;SDS011;56325;47.030;18.518;2022-08-05T16:24:55;3.90;;;1.50;;
69213;SDS011;56325;47.030;18.518;2022-08-05T16:28:05;5.90;;;1.67;;
69213;SDS011;56325;47.030;18.518;2022-08-05T16:35:13;4.72;;;1.75;;
69213;SDS011;56325;47.030;18.518;2022-08-05T16:38:24;1.70;;;1.60;;
69213;SDS011;56325;47.030;18.518;2022-08-05T16:41:29;1.52;;;1.42;;
69213;SDS011;56325;47.030;18.518;2022-08-05T16:44:53;4.22;;;1.58;;
69213;SDS011;56325;47.030;18.518;2022-08-05T16:48:02;2.67;;;1.30;;
69213;SDS011;56325;47.030;18.518;2022-08-05T16:51:06;2.87;;;2.08;;
69213;SDS011;56325;47.030;18.518;2022-08-05T16:54:11;5.43;;;1.65;;
69213;SDS011;56325;47.030;18.518;2022-08-05T16:57:29;5.47;;;1.80;;
69213;SDS011;56325;47.030;18.518;2022-08-05T17:00:52;4.80;;;1.83;;
69213;SDS011;56325;47.030;18.518;2022-08-05T17:03:56;5.12;;;1.60;;
69213;SDS011;56325;47.030;18.518;2022-08-05T17:07:01;1.55;;;1.50;;
69213;SDS011;56325;47.030;18.518;2022-08-05T17:10:13;7.22;;;1.35;;
69213;SDS011;56325;47.030;18.518;2022-08-05T17:13:17;11.30;;;2.40;;
69213;SDS011;56325;47.030;18.518;2022-08-05T17:16:40;13.15;;;2.45;;
69213;SDS011;56325;47.030;18.518;2022-08-05T17:19:45;9.55;;;2.37;;
69213;SDS011;56325;47.030;18.518;2022-08-05T17:22:57;13.93;;;2.83;;
69213;SDS011;56325;47.030;18.518;2022-08-05T17:30:10;10.90;;;2.42;;
69213;SDS011;56325;47.030;18.518;2022-08-05T17:55:03;18.33;;;3.15;;
69213;SDS011;56325;47.030;18.518;2022-08-05T18:11:07;4.75;;;1.83;;
69213;SDS011;56325;47.030;18.518;2022-08-05T18:14:24;5.75;;;1.98;;
69213;SDS011;56325;47.030;18.518;2022-08-05T18:17:28;8.90;;;1.80;;
69213;SDS011;56325;47.030;18.518;2022-08-05T18:20:51;4.57;;;1.85;;
69213;SDS011;56325;47.030;18.518;2022-08-05T18:24:14;8.48;;;2.12;;
69213;SDS011;56325;47.030;18.518;2022-08-05T18:27:18;11.23;;;2.17;;
69213;SDS011;56325;47.030;18.518;2022-08-05T18:30:22;5.97;;;2.05;;
69213;SDS011;56325;47.030;18.518;2022-08-05T18:33:28;10.38;;;2.30;;
69213;SDS011;56325;47.030;18.518;2022-08-05T18:36:48;9.70;;;2.00;;
69213;SDS011;56325;47.030;18.518;2022-08-05T18:39:52;8.10;;;2.40;;
69213;SDS011;56325;47.030;18.518;2022-08-05T18:43:37;11.45;;;2.10;;
69213;SDS011;56325;47.030;18.518;2022-08-05T18:46:50;8.55;;;2.50;;
69213;SDS011;56325;47.030;18.518;2022-08-05T18:49:54;12.10;;;2.03;;
69213;SDS011;56325;47.030;18.518;2022-08-05T18:53:17;40.80;;;4.32;;
69213;SDS011;56325;47.030;18.518;2022-08-05T18:59:31;16.12;;;2.28;;
69213;SDS011;56325;47.030;18.518;2022-08-05T19:03:14;15.95;;;2.08;;
69213;SDS011;56325;47.030;18.518;2022-08-05T19:06:18;8.30;;;2.05;;
69213;SDS011;56325;47.030;18.518;2022-08-05T19:09:26;14.45;;;2.30;;
69213;SDS011;56325;47.030;18.518;2022-08-05T19:12:41;11.80;;;2.10;;
69213;SDS011;56325;47.030;18.518;2022-08-05T19:15:51;12.50;;;2.20;;
69213;SDS011;56325;47.030;18.518;2022-08-05T19:19:06;13.88;;;2.42;;
69213;SDS011;56325;47.030;18.518;2022-08-05T19:22:30;5.12;;;1.77;;
69213;SDS011;56325;47.030;18.518;2022-08-05T19:25:56;20.27;;;2.37;;
69213;SDS011;56325;47.030;18.518;2022-08-05T19:29:04;4.75;;;1.90;;
69213;SDS011;56325;47.030;18.518;2022-08-05T19:32:44;9.77;;;2.20;;
69213;SDS011;56325;47.030;18.518;2022-08-05T19:36:20;9.48;;;2.10;;
69213;SDS011;56325;47.030;18.518;2022-08-05T19:39:52;14.30;;;2.17;;
69213;SDS011;56325;47.030;18.518;2022-08-05T19:42:59;11.43;;;2.40;;
69213;SDS011;56325;47.030;18.518;2022-08-05T19:50:19;9.30;;;2.50;;
69213;SDS011;56325;47.030;18.518;2022-08-05T19:53:47;3.03;;;2.20;;
69213;SDS011;56325;47.030;18.518;2022-08-05T19:57:09;4.43;;;2.53;;
69213;SDS011;56325;47.030;18.518;2022-08-05T20:04:04;5.30;;;2.00;;
69213;SDS011;56325;47.030;18.518;2022-08-05T20:07:30;6.95;;;2.42;;
69213;SDS011;56325;47.030;18.518;2022-08-05T20:11:11;7.72;;;2.17;;
69213;SDS011;56325;47.030;18.518;2022-08-05T20:14:39;2.62;;;2.22;;
69213;SDS011;56325;47.030;18.518;2022-08-05T20:18:09;6.80;;;2.28;;
69213;SDS011;56325;47.030;18.518;2022-08-05T20:21:32;2.05;;;1.92;;
69213;SDS011;56325;47.030;18.518;2022-08-05T20:24:39;4.68;;;2.50;;
69213;SDS011;56325;47.030;18.518;2022-08-05T20:27:45;8.02;;;1.90;;
69213;SDS011;56325;47.030;18.518;2022-08-05T20:30:55;4.18;;;2.20;;
69213;SDS011;56325;47.030;18.518;2022-08-05T20:33:58;1.85;;;1.75;;
69213;SDS011;56325;47.030;18.518;2022-08-05T20:37:02;6.10;;;1.92;;
69213;SDS011;56325;47.030;18.518;2022-08-05T20:40:10;4.95;;;1.98;;
69213;SDS011;56325;47.030;18.518;2022-08-05T20:43:57;2.72;;;1.90;;
69213;SDS011;56325;47.030;18.518;2022-08-05T20:47:17;2.42;;;1.90;;
69213;SDS011;56325;47.030;18.518;2022-08-05T20:50:33;2.40;;;2.00;;
69213;SDS011;56325;47.030;18.518;2022-08-05T20:53:45;9.73;;;2.45;;
69213;SDS011;56325;47.030;18.518;2022-08-05T20:56:59;11.80;;;2.83;;
69213;SDS011;56325;47.030;18.518;2022-08-05T21:00:05;6.40;;;2.62;;
69213;SDS011;56325;47.030;18.518;2022-08-05T21:03:32;12.82;;;2.50;;
69213;SDS011;56325;47.030;18.518;2022-08-05T21:06:36;4.87;;;2.65;;
69213;SDS011;56325;47.030;18.518;2022-08-05T21:09:50;4.65;;;2.70;;
69213;SDS011;56325;47.030;18.518;2022-08-05T21:16:55;7.45;;;2.08;;
69213;SDS011;56325;47.030;18.518;2022-08-05T21:20:01;2.58;;;2.10;;
69213;SDS011;56325;47.030;18.518;2022-08-05T21:23:12;7.22;;;2.60;;
69213;SDS011;56325;47.030;18.518;2022-08-05T21:26:15;2.50;;;1.98;;
69213;SDS011;56325;47.030;18.518;2022-08-05T21:29:19;9.43;;;2.15;;
69213;SDS011;56325;47.030;18.518;2022-08-05T21:32:31;6.37;;;2.80;;
69213;SDS011;56325;47.030;18.518;2022-08-05T22:35:57;6.87;;;2.33;;
69213;SDS011;56325;47.030;18.518;2022-08-05T22:39:21;3.53;;;2.55;;
69213;SDS011;56325;47.030;18.518;2022-08-05T22:42:24;4.87;;;2.20;;
69213;SDS011;56325;47.030;18.518;2022-08-05T22:45:31;2.55;;;2.33;;
69213;SDS011;56325;47.030;18.518;2022-08-05T22:48:35;6.65;;;2.60;;
69213;SDS011;56325;47.030;18.518;2022-08-05T22:51:48;10.13;;;2.50;;
69213;SDS011;56325;47.030;18.518;2022-08-05T22:55:11;8.93;;;2.90;;
69213;SDS011;56325;47.030;18.518;2022-08-05T22:58:23;22.58;;;2.87;;
69213;SDS011;56325;47.030;18.518;2022-08-05T23:01:33;3.35;;;2.50;;
69213;SDS011;56325;47.030;18.518;2022-08-05T23:04:56;7.62;;;2.55;;
69213;SDS011;56325;47.030;18.518;2022-08-05T23:08:13;8.32;;;2.22;;
69213;SDS011;56325;47.030;18.518;2022-08-05T23:11:17;4.20;;;2.50;;
69213;SDS011;56325;47.030;18.518;2022-08-05T23:14:21;2.55;;;2.25;;
69213;SDS011;56325;47.030;18.518;2022-08-05T23:17:33;4.72;;;2.80;;
69213;SDS011;56325;47.030;18.518;2022-08-05T23:20:59;9.82;;;2.10;;
69213;SDS011;56325;47.030;18.518;2022-08-05T23:24:04;11.68;;;2.47;;
69213;SDS011;56325;47.030;18.518;2022-08-05T23:27:27;10.90;;;3.20;;
69213;SDS011;56325;47.030;18.518;2022-08-05T23:31:10;9.07;;;2.45;;
69213;SDS011;56325;47.030;18.518;2022-08-05T23:34:53;13.13;;;2.80;;
69213;SDS011;56325;47.030;18.518;2022-08-05T23:37:59;8.48;;;2.20;;
69213;SDS011;56325;47.030;18.518;2022-08-05T23:41:03;9.80;;;2.90;;
69213;SDS011;56325;47.030;18.518;2022-08-05T23:44:43;14.65;;;2.80;;
69213;SDS011;56325;47.030;18.518;2022-08-05T23:48:15;8.02;;;2.80;;
69213;SDS011;56325;47.030;18.518;2022-08-05T23:51:58;7.93;;;2.60;;
69213;SDS011;56325;47.030;18.518;2022-08-05T23:55:50;5.53;;;3.25;;
69213;SDS011;56325;47.030;18.518;2022-08-05T23:59:16;13.75;;;2.72;;
